Time;durP1;ratioP1;P1;durP2;ratioP2;P2;SDS_P1;SDS_P2;PMS_P1;PMS_P2;Temp;Humidity;BMP_temperature;BMP_pressure;BME280_temperature;BME280_humidity;BME280_pressure;Samples;Min_cycle;Max_cycle;Signal;HPM_P1;HPM_P2
2024/04/02 00:02:21;;;;;;;8.65;5.38;;;8.80;99.90;;;;;;4981682;28;20033;-84
2024/04/02 00:04:47;;;;;;;9.82;5.50;;;8.80;99.90;;;;;;5000498;28;20022;-83
2024/04/02 00:07:12;;;;;;;9.48;4.80;;;8.70;99.90;;;;;;4981473;28;20014;-83
2024/04/02 00:09:38;;;;;;;8.50;4.82;;;8.70;99.90;;;;;;4987882;28;20508;-84
2024/04/02 00:12:04;;;;;;;9.57;4.82;;;8.70;99.90;;;;;;5015176;28;20083;-84
2024/04/02 00:14:29;;;;;;;10.38;4.90;;;8.70;99.90;;;;;;4986114;28;20025;-84
2024/04/02 00:16:55;;;;;;;12.60;6.25;;;8.70;99.90;;;;;;4998874;28;20029;-84
2024/04/02 00:19:21;;;;;;;12.00;4.47;;;8.70;99.90;;;;;;5001594;28;20025;-85
2024/04/02 00:21:46;;;;;;;9.20;4.35;;;8.70;99.90;;;;;;4987010;28;20033;-85
2024/04/02 00:24:12;;;;;;;9.88;4.28;;;8.70;99.90;;;;;;5013405;28;20026;-83
2024/04/02 00:26:37;;;;;;;5.38;4.13;;;8.70;99.90;;;;;;4991301;28;20531;-86
2024/04/02 00:29:03;;;;;;;8.98;4.45;;;8.60;99.90;;;;;;4993477;28;20040;-88
2024/04/02 00:31:28;;;;;;;9.73;4.15;;;8.60;99.90;;;;;;5013468;28;20024;-84
2024/04/02 00:33:54;;;;;;;8.20;3.88;;;8.60;99.90;;;;;;4957997;28;20025;-84
2024/04/02 00:36:20;;;;;;;8.63;3.75;;;8.50;99.90;;;;;;4990705;28;20087;-84
2024/04/02 00:38:46;;;;;;;10.70;3.83;;;8.50;99.90;;;;;;4936383;28;20117;-84
2024/04/02 00:41:11;;;;;;;7.85;3.22;;;8.50;99.90;;;;;;4923908;28;21258;-84
2024/04/02 00:43:37;;;;;;;6.40;3.53;;;8.40;99.90;;;;;;4970828;28;20048;-84
2024/04/02 00:46:03;;;;;;;8.93;3.72;;;8.40;99.90;;;;;;4961800;28;20049;-87
2024/04/02 00:48:39;;;;;;;8.23;4.18;;;8.40;99.90;;;;;;4978079;28;20139;-83
2024/04/02 00:51:04;;;;;;;;;;;8.40;99.90;;;;;;5003264;28;20515;-85
2024/04/02 00:53:30;;;;;;;8.43;3.77;;;8.40;99.90;;;;;;4944174;28;19905;-84
2024/04/02 00:56:04;;;;;;;5.78;3.70;;;8.30;99.90;;;;;;4962260;28;20038;-83
2024/04/02 00:58:31;;;;;;;4.82;2.95;;;8.30;99.90;;;;;;4971094;28;20052;-84
2024/04/02 01:00:57;;;;;;;7.15;3.75;;;8.30;99.90;;;;;;4965952;28;20474;-84
2024/04/02 01:03:24;;;;;;;8.48;3.60;;;8.30;99.90;;;;;;4990947;28;20021;-83
2024/04/02 01:05:51;;;;;;;5.38;2.85;;;8.20;99.90;;;;;;4967593;28;20123;-84
2024/04/02 01:08:17;;;;;;;5.25;3.10;;;8.20;99.90;;;;;;4949715;28;21626;-84
2024/04/02 01:10:42;;;;;;;6.97;3.50;;;8.20;99.90;;;;;;4976282;28;20029;-85
2024/04/02 01:13:09;;;;;;;8.30;3.65;;;8.20;99.90;;;;;;4935977;28;20029;-84
2024/04/02 01:15:37;;;;;;;7.55;4.18;;;8.10;99.90;;;;;;4954169;28;20237;-84
2024/04/02 01:18:03;;;;;;;10.25;4.60;;;8.10;99.90;;;;;;4998539;28;20128;-86
2024/04/02 01:20:28;;;;;;;9.75;3.35;;;8.10;99.90;;;;;;4933530;28;20013;-85
2024/04/02 01:23:10;;;;;;;7.68;2.92;;;8.10;99.90;;;;;;4985490;28;20018;-84
2024/04/02 01:25:36;;;;;;;6.57;3.22;;;8.10;99.90;;;;;;4997828;28;20053;-85
2024/04/02 01:28:01;;;;;;;5.97;3.28;;;8.10;99.90;;;;;;4942975;28;20112;-85
2024/04/02 01:30:32;;;;;;;5.60;2.78;;;8.10;99.90;;;;;;4987017;28;20049;-84
2024/04/02 01:32:58;;;;;;;5.13;3.58;;;8.00;99.90;;;;;;4997740;28;20038;-84
2024/04/02 01:35:24;;;;;;;8.23;3.67;;;8.00;99.90;;;;;;4957304;28;20028;-84
2024/04/02 01:37:49;;;;;;;4.93;3.22;;;8.00;99.90;;;;;;4999667;28;20022;-85
2024/04/02 01:40:15;;;;;;;5.90;2.80;;;8.00;99.90;;;;;;4956609;28;20029;-85
2024/04/02 01:42:40;;;;;;;5.65;2.95;;;8.00;99.90;;;;;;4949899;28;20509;-85
2024/04/02 01:45:06;;;;;;;6.32;3.15;;;8.00;99.90;;;;;;4995899;28;20029;-83
2024/04/02 01:47:32;;;;;;;3.55;2.90;;;8.00;99.90;;;;;;4948827;28;20536;-84
2024/04/02 01:49:58;;;;;;;5.93;2.97;;;8.00;99.90;;;;;;4977332;28;20068;-84
2024/04/02 01:52:23;;;;;;;4.50;3.05;;;8.00;99.90;;;;;;4965204;28;20321;-85
2024/04/02 01:54:49;;;;;;;9.65;3.50;;;8.00;99.90;;;;;;4954996;28;20605;-85
2024/04/02 01:57:14;;;;;;;5.40;3.95;;;8.00;99.90;;;;;;4999020;28;20036;-84
2024/04/02 01:59:40;;;;;;;8.75;3.70;;;7.90;99.90;;;;;;4946159;28;21283;-85
2024/04/02 02:02:08;;;;;;;5.18;3.78;;;8.00;99.90;;;;;;4957925;28;20033;-86
2024/04/02 02:04:34;;;;;;;9.82;4.03;;;7.90;99.90;;;;;;4983702;28;20017;-85
2024/04/02 02:06:59;;;;;;;8.88;4.28;;;7.90;99.90;;;;;;4957203;28;20777;-84
2024/04/02 02:09:37;;;;;;;7.28;4.38;;;7.90;99.90;;;;;;4971549;28;20033;-84
2024/04/02 02:12:02;;;;;;;7.13;3.72;;;8.00;99.90;;;;;;4986877;28;20037;-85
2024/04/02 02:14:28;;;;;;;6.13;3.50;;;8.00;99.90;;;;;;4954481;28;20055;-83
2024/04/02 02:16:54;;;;;;;5.90;3.25;;;7.90;99.90;;;;;;4980688;28;20030;-83
2024/04/02 02:19:20;;;;;;;12.40;4.93;;;7.90;99.90;;;;;;4965402;28;20049;-84
2024/04/02 02:21:47;;;;;;;8.80;3.55;;;7.90;99.90;;;;;;4953924;28;21509;-84
2024/04/02 02:24:13;;;;;;;5.30;3.13;;;7.90;99.90;;;;;;4988075;28;20590;-83
2024/04/02 02:26:38;;;;;;;6.50;3.33;;;7.90;99.90;;;;;;4942671;28;20092;-84
2024/04/02 02:29:07;;;;;;;6.20;3.53;;;7.90;99.90;;;;;;4950777;28;20062;-84
2024/04/02 02:31:38;;;;;;;4.68;2.92;;;7.90;99.90;;;;;;5026061;28;20055;-86
2024/04/02 02:34:04;;;;;;;6.70;3.33;;;7.90;99.90;;;;;;4964782;28;20036;-86
2024/04/02 02:36:37;;;;;;;4.38;2.53;;;7.90;99.90;;;;;;4976949;28;20017;-83
2024/04/02 02:39:04;;;;;;;6.53;3.42;;;7.90;99.90;;;;;;5007524;28;20060;-84
2024/04/02 02:41:30;;;;;;;9.40;3.58;;;7.90;99.90;;;;;;4957430;28;20036;-85
2024/04/02 02:44:08;;;;;;;4.63;2.85;;;7.90;99.90;;;;;;4980759;28;20026;-84
2024/04/02 02:46:33;;;;;;;9.73;3.83;;;7.90;99.90;;;;;;4979040;28;20451;-83
2024/04/02 02:48:59;;;;;;;6.03;3.10;;;7.90;99.90;;;;;;4948952;28;20023;-84
2024/04/02 02:51:26;;;;;;;6.32;3.42;;;7.90;99.90;;;;;;4970648;28;20123;-85
2024/04/02 02:53:52;;;;;;;4.75;3.10;;;7.90;99.90;;;;;;4954449;28;20025;-84
2024/04/02 02:56:17;;;;;;;5.82;3.13;;;7.90;99.90;;;;;;4945927;28;22362;-84
2024/04/02 02:58:43;;;;;;;7.78;3.30;;;7.90;99.90;;;;;;4978447;28;20731;-84
2024/04/02 03:01:10;;;;;;;4.95;2.85;;;7.90;99.90;;;;;;4960552;28;20056;-85
2024/04/02 03:03:38;;;;;;;9.20;3.65;;;7.90;99.90;;;;;;4929503;28;20025;-83
2024/04/02 03:06:03;;;;;;;6.78;3.40;;;7.90;99.90;;;;;;4969519;28;20112;-85
2024/04/02 03:08:29;;;;;;;4.00;3.25;;;7.90;99.90;;;;;;4982450;28;20053;-84
2024/04/02 03:10:56;;;;;;;8.02;3.88;;;7.90;99.90;;;;;;4979365;28;20040;-85
2024/04/02 03:13:24;;;;;;;5.28;3.53;;;7.90;99.90;;;;;;4993424;28;20029;-84
2024/04/02 03:15:50;;;;;;;8.30;3.83;;;7.90;99.90;;;;;;4993994;28;21369;-84
2024/04/02 03:18:15;;;;;;;7.35;3.35;;;7.90;99.90;;;;;;5013324;28;20033;-84
2024/04/02 03:20:41;;;;;;;6.28;3.08;;;7.90;99.90;;;;;;4982091;28;20034;-84
2024/04/02 03:23:06;;;;;;;5.45;3.30;;;7.90;99.90;;;;;;4980761;28;20053;-85
2024/04/02 03:25:32;;;;;;;5.03;4.30;;;7.90;99.90;;;;;;4973602;28;20050;-84
2024/04/02 03:27:57;;;;;;;7.82;3.40;;;7.90;99.90;;;;;;4988511;28;20033;-84
2024/04/02 03:30:23;;;;;;;5.68;3.70;;;7.90;99.90;;;;;;5013047;28;20075;-83
2024/04/02 03:32:48;;;;;;;4.85;3.78;;;7.90;99.90;;;;;;5001797;28;20446;-84
2024/04/02 03:35:14;;;;;;;6.18;3.75;;;7.90;99.90;;;;;;4989057;28;20028;-83
2024/04/02 03:37:39;;;;;;;5.35;3.85;;;8.00;99.90;;;;;;4990740;28;20028;-84
2024/04/02 03:40:06;;;;;;;6.68;4.45;;;7.90;99.90;;;;;;4996401;28;20037;-84
2024/04/02 03:42:41;;;;;;;6.72;4.15;;;7.90;99.90;;;;;;5001177;28;20056;-83
2024/04/02 03:45:08;;;;;;;7.45;4.78;;;8.00;99.90;;;;;;5011426;28;20379;-84
2024/04/02 03:47:34;;;;;;;6.82;4.25;;;8.00;99.90;;;;;;5002736;28;20028;-83
2024/04/02 03:49:59;;;;;;;8.02;4.35;;;7.90;99.90;;;;;;5000177;28;20033;-83
2024/04/02 03:52:25;;;;;;;7.47;4.43;;;8.00;99.90;;;;;;4998337;28;20033;-82
2024/04/02 03:54:50;;;;;;;8.68;3.88;;;7.90;99.90;;;;;;5000976;28;20037;-84
2024/04/02 03:57:16;;;;;;;10.80;4.85;;;8.00;99.90;;;;;;5006318;28;20036;-83
2024/04/02 03:59:41;;;;;;;11.95;4.85;;;7.90;99.90;;;;;;4999714;28;20032;-85
2024/04/02 04:02:07;;;;;;;9.80;5.30;;;7.90;99.90;;;;;;4990187;28;20013;-83
2024/04/02 04:04:32;;;;;;;9.02;4.97;;;7.90;99.90;;;;;;4980646;28;20101;-85
2024/04/02 04:06:58;;;;;;;9.27;5.18;;;7.90;99.90;;;;;;5005037;28;20030;-84
2024/04/02 04:09:23;;;;;;;7.72;5.20;;;7.90;99.90;;;;;;5014110;28;20024;-84
2024/04/02 04:11:50;;;;;;;7.78;5.45;;;7.90;99.90;;;;;;5016992;28;20083;-85
2024/04/02 04:14:16;;;;;;;10.38;5.72;;;7.90;99.90;;;;;;4995512;28;20520;-84
2024/04/02 04:16:41;;;;;;;9.35;5.90;;;8.00;99.90;;;;;;4999203;28;20121;-86
2024/04/02 04:19:07;;;;;;;8.55;5.43;;;8.00;99.90;;;;;;5023616;28;20025;-86
2024/04/02 04:21:36;;;;;;;9.77;5.72;;;8.00;99.90;;;;;;4999298;28;20025;-84
2024/04/02 04:24:02;;;;;;;10.70;5.85;;;8.00;99.90;;;;;;5005304;28;20057;-85
2024/04/02 04:26:28;;;;;;;8.85;5.88;;;8.00;99.90;;;;;;5001748;28;20478;-84
2024/04/02 04:28:53;;;;;;;10.02;5.78;;;8.00;99.90;;;;;;4981294;28;20021;-83
2024/04/02 04:31:19;;;;;;;10.07;6.18;;;8.00;99.90;;;;;;5000877;28;20108;-84
2024/04/02 04:33:44;;;;;;;11.30;5.70;;;8.00;99.90;;;;;;4982071;28;20112;-85
2024/04/02 04:36:12;;;;;;;7.63;6.35;;;8.00;99.90;;;;;;4998143;28;20474;-83
2024/04/02 04:38:37;;;;;;;9.45;6.28;;;8.00;99.90;;;;;;5007988;28;20029;-84
2024/04/02 04:41:03;;;;;;;11.68;5.68;;;8.00;99.90;;;;;;4977671;28;20599;-84
2024/04/02 04:43:28;;;;;;;11.27;6.63;;;8.00;99.90;;;;;;4970718;28;20022;-84
2024/04/02 04:46:00;;;;;;;8.75;5.63;;;8.00;99.90;;;;;;4993579;28;22362;-84
2024/04/02 04:48:26;;;;;;;10.32;5.75;;;8.00;99.90;;;;;;5000153;28;20026;-84
2024/04/02 04:50:56;;;;;;;9.02;5.47;;;8.00;99.90;;;;;;5002203;28;20033;-85
2024/04/02 04:53:21;;;;;;;7.90;5.20;;;8.00;99.90;;;;;;4985983;28;20049;-84
2024/04/02 04:55:47;;;;;;;8.18;5.80;;;8.00;99.90;;;;;;4983203;28;20765;-86
2024/04/02 04:58:13;;;;;;;9.93;6.30;;;8.00;99.90;;;;;;4999807;28;20030;-85
2024/04/02 05:00:38;;;;;;;9.88;5.97;;;8.00;99.90;;;;;;4977216;28;20033;-85
2024/04/02 05:03:05;;;;;;;7.80;5.30;;;8.00;99.90;;;;;;4996661;28;20065;-84
2024/04/02 05:05:31;;;;;;;13.05;5.78;;;8.00;99.90;;;;;;5010776;28;20048;-85
2024/04/02 05:08:17;;;;;;;11.18;5.95;;;8.00;99.90;;;;;;5004050;28;20053;-85
2024/04/02 05:10:46;;;;;;;8.30;5.97;;;8.00;99.90;;;;;;4995725;28;20516;-84
2024/04/02 05:13:12;;;;;;;6.55;5.82;;;8.00;99.90;;;;;;5013461;28;20042;-83
2024/04/02 05:15:38;;;;;;;8.70;5.88;;;8.00;99.90;;;;;;5001106;28;20103;-85
2024/04/02 05:18:04;;;;;;;8.20;5.78;;;8.00;99.90;;;;;;5001111;28;20481;-85
2024/04/02 05:20:30;;;;;;;8.82;5.75;;;8.00;99.90;;;;;;5015098;28;20026;-85
2024/04/02 05:22:55;;;;;;;8.98;6.07;;;8.10;99.90;;;;;;4995598;28;20033;-84
2024/04/02 05:25:22;;;;;;;8.38;5.80;;;8.00;99.90;;;;;;5017697;28;20041;-83
2024/04/02 05:27:48;;;;;;;8.63;6.07;;;8.00;99.90;;;;;;4994098;28;20022;-83
2024/04/02 05:30:21;;;;;;;6.57;5.50;;;8.00;99.90;;;;;;4982812;28;21279;-85
2024/04/02 05:32:46;;;;;;;8.40;6.47;;;8.00;99.90;;;;;;5009808;28;20116;-83
2024/04/02 05:35:14;;;;;;;13.90;6.32;;;8.00;99.90;;;;;;4983310;28;20557;-84
2024/04/02 05:37:40;;;;;;;10.52;6.15;;;8.00;99.90;;;;;;4993096;28;20026;-84
2024/04/02 05:40:07;;;;;;;8.13;6.25;;;8.00;99.90;;;;;;5016379;28;21730;-85
2024/04/02 05:42:32;;;;;;;8.82;5.57;;;8.10;99.90;;;;;;4995325;28;20116;-84
2024/04/02 05:45:02;;;;;;;11.95;6.13;;;8.10;99.90;;;;;;4990475;28;20155;-83
2024/04/02 05:47:28;;;;;;;9.63;5.75;;;8.10;99.90;;;;;;5006827;28;20026;-84
2024/04/02 05:49:53;;;;;;;10.45;6.63;;;8.10;99.90;;;;;;4986562;28;20033;-84
2024/04/02 05:52:19;;;;;;;11.30;6.90;;;8.10;99.90;;;;;;5012610;28;20057;-84
2024/04/02 05:54:45;;;;;;;11.15;7.45;;;8.10;99.90;;;;;;4982325;28;20040;-84
2024/04/02 05:57:15;;;;;;;9.35;6.57;;;8.10;99.90;;;;;;4985884;28;20034;-85
2024/04/02 05:59:40;;;;;;;9.70;6.55;;;8.10;99.90;;;;;;5005070;28;20025;-86
2024/04/02 06:02:06;;;;;;;9.75;7.15;;;8.10;99.90;;;;;;4981065;28;20388;-84
2024/04/02 06:04:31;;;;;;;11.15;6.90;;;8.20;99.90;;;;;;4978167;28;20028;-83
2024/04/02 06:06:57;;;;;;;11.52;7.45;;;8.20;99.90;;;;;;5005938;28;20017;-85
2024/04/02 06:09:23;;;;;;;11.40;7.35;;;8.10;99.90;;;;;;4967616;28;20048;-84
2024/04/02 06:11:48;;;;;;;13.20;7.43;;;8.10;99.90;;;;;;4994138;28;20036;-84
2024/04/02 06:14:14;;;;;;;10.82;7.22;;;8.20;99.90;;;;;;4973519;28;20029;-85
2024/04/02 06:16:39;;;;;;;13.48;6.75;;;8.20;99.90;;;;;;4976189;28;20153;-86
2024/04/02 06:19:06;;;;;;;12.82;7.90;;;8.20;99.90;;;;;;5009656;28;20074;-85
2024/04/02 06:21:32;;;;;;;10.82;7.63;;;8.20;99.90;;;;;;4972513;28;20049;-85
2024/04/02 06:23:58;;;;;;;12.05;7.25;;;8.20;99.90;;;;;;4984554;28;20025;-84
2024/04/02 06:26:24;;;;;;;13.75;8.43;;;8.20;99.90;;;;;;4993501;28;20036;-86
2024/04/02 06:28:49;;;;;;;10.98;7.65;;;8.20;99.90;;;;;;4974982;28;20699;-83
2024/04/02 06:31:15;;;;;;;14.35;8.27;;;8.20;99.90;;;;;;5008245;28;20033;-85
2024/04/02 06:33:41;;;;;;;11.98;7.53;;;8.30;99.90;;;;;;4978180;28;20045;-86
2024/04/02 06:36:07;;;;;;;15.20;8.10;;;8.30;99.90;;;;;;4978061;28;20068;-85
2024/04/02 06:38:32;;;;;;;10.18;7.28;;;8.30;99.90;;;;;;4998660;28;20029;-85
2024/04/02 06:40:58;;;;;;;14.95;7.88;;;8.30;99.90;;;;;;4974562;28;20030;-86
2024/04/02 06:43:23;;;;;;;13.65;8.05;;;8.30;99.90;;;;;;4997256;28;20049;-84
2024/04/02 06:45:57;;;;;;;11.30;8.82;;;8.30;99.90;;;;;;4982379;28;20041;-85
2024/04/02 06:48:23;;;;;;;13.98;8.55;;;8.30;99.90;;;;;;4970975;28;20037;-86
2024/04/02 06:51:07;;;;;;;12.63;8.02;;;8.40;99.90;;;;;;4995929;28;20552;-86
2024/04/02 06:53:34;;;;;;;10.95;7.78;;;8.40;99.90;;;;;;4993533;28;20105;-84
2024/04/02 06:56:00;;;;;;;11.38;8.32;;;8.40;99.90;;;;;;4969728;28;20041;-85
2024/04/02 06:58:26;;;;;;;10.60;8.65;;;8.40;99.90;;;;;;5002589;28;20026;-85
2024/04/02 07:00:52;;;;;;;11.23;8.57;;;8.50;99.90;;;;;;4979458;28;20036;-85
2024/04/02 07:03:19;;;;;;;16.20;9.52;;;8.50;99.90;;;;;;4975435;28;21439;-87
2024/04/02 07:05:45;;;;;;;14.70;8.57;;;8.50;99.90;;;;;;4996116;28;20029;-85
2024/04/02 07:08:11;;;;;;;11.35;8.20;;;8.50;99.90;;;;;;4994772;28;20030;-84
2024/04/02 07:10:39;;;;;;;16.23;8.27;;;8.50;99.90;;;;;;4969826;28;20033;-85
2024/04/02 07:13:04;;;;;;;14.70;8.85;;;8.60;99.90;;;;;;5003664;28;20093;-85
2024/04/02 07:15:30;;;;;;;13.77;8.38;;;8.60;99.90;;;;;;4965190;28;20112;-85
2024/04/02 07:17:56;;;;;;;9.77;7.85;;;8.70;99.90;;;;;;4982286;28;20555;-85
2024/04/02 07:20:23;;;;;;;16.60;8.82;;;8.70;99.90;;;;;;4982956;28;20018;-86
2024/04/02 07:22:48;;;;;;;15.13;7.88;;;8.70;99.90;;;;;;4973713;28;21377;-84
2024/04/02 07:25:14;;;;;;;11.43;7.28;;;8.80;99.90;;;;;;5012020;28;20695;-84
2024/04/02 07:27:40;;;;;;;12.20;7.90;;;8.70;99.90;;;;;;4968872;28;20116;-85
2024/04/02 07:30:06;;;;;;;14.63;8.85;;;8.70;99.90;;;;;;4973140;28;20583;-84
2024/04/02 07:32:32;;;;;;;11.43;7.88;;;8.80;99.90;;;;;;4999200;28;20030;-86
2024/04/02 07:34:57;;;;;;;11.38;6.85;;;8.80;99.90;;;;;;4984433;28;20036;-85
2024/04/02 07:37:26;;;;;;;12.95;7.93;;;8.80;99.90;;;;;;5003835;28;20022;-84
2024/04/02 07:39:52;;;;;;;11.05;7.43;;;8.90;99.90;;;;;;4942949;28;1065530;-85
2024/04/02 07:42:17;;;;;;;11.10;7.78;;;8.90;99.90;;;;;;4969833;28;21458;-85
2024/04/02 07:44:43;;;;;;;11.15;7.32;;;8.90;99.90;;;;;;4994396;28;20504;-85
2024/04/02 07:47:08;;;;;;;12.30;7.53;;;8.90;99.90;;;;;;4987971;28;20063;-86
2024/04/02 07:49:34;;;;;;;9.63;6.63;;;8.90;99.90;;;;;;4987267;28;20037;-84
2024/04/02 07:52:00;;;;;;;10.30;7.68;;;8.90;99.90;;;;;;5011207;28;20591;-85
2024/04/02 07:54:25;;;;;;;11.77;8.05;;;8.90;99.90;;;;;;4974907;28;20049;-85
2024/04/02 07:56:51;;;;;;;10.45;7.38;;;9.00;99.90;;;;;;4994635;28;20037;-85
2024/04/02 07:59:17;;;;;;;11.80;8.38;;;9.00;99.90;;;;;;4962383;28;20033;-85
2024/04/02 08:01:42;;;;;;;15.48;7.32;;;8.90;99.90;;;;;;4975567;28;21773;-86
2024/04/02 08:04:08;;;;;;;11.93;6.97;;;9.00;99.90;;;;;;5008681;28;20191;-85
2024/04/02 08:06:35;;;;;;;11.10;7.78;;;9.00;99.90;;;;;;4962509;28;20393;-86
2024/04/02 08:09:01;;;;;;;13.60;8.38;;;9.00;99.90;;;;;;4981596;28;20034;-85
2024/04/02 08:11:26;;;;;;;9.00;7.95;;;9.00;99.90;;;;;;4988283;28;20032;-86
2024/04/02 08:13:51;;;;;;;12.25;7.40;;;9.00;99.90;;;;;;4970706;28;20060;-84
2024/04/02 08:16:18;;;;;;;9.18;7.75;;;9.10;99.90;;;;;;5009529;28;20128;-84
2024/04/02 08:18:47;;;;;;;13.02;8.10;;;9.00;99.90;;;;;;4953651;28;20160;-84
2024/04/02 08:21:12;;;;;;;9.32;6.78;;;9.10;99.90;;;;;;4961888;28;21152;-85
2024/04/02 08:23:38;;;;;;;11.70;7.97;;;9.10;99.90;;;;;;4997781;28;20025;-84
2024/04/02 08:26:03;;;;;;;10.02;6.75;;;9.10;99.90;;;;;;4971243;28;20013;-85
2024/04/02 08:28:29;;;;;;;20.63;8.65;;;9.10;99.90;;;;;;4971484;28;20412;-82
2024/04/02 08:30:55;;;;;;;10.52;8.13;;;9.10;99.90;;;;;;4986026;28;20032;-84
2024/04/02 08:33:21;;;;;;;12.90;8.00;;;9.20;99.90;;;;;;4967587;28;21517;-85
2024/04/02 08:35:51;;;;;;;14.43;7.47;;;9.20;99.90;;;;;;4994648;28;20113;-86
2024/04/02 08:38:16;;;;;;;9.18;7.13;;;9.20;99.90;;;;;;4957217;28;20037;-83
2024/04/02 08:40:47;;;;;;;10.82;7.45;;;9.20;99.90;;;;;;4956295;28;21384;-84
2024/04/02 08:43:14;;;;;;;12.70;7.68;;;9.20;99.90;;;;;;5008883;28;20042;-85
2024/04/02 08:45:41;;;;;;;11.13;7.55;;;9.30;99.90;;;;;;4962379;28;20030;-84
2024/04/02 08:48:10;;;;;;;12.20;6.78;;;9.30;99.90;;;;;;4959264;28;20094;-85
2024/04/02 08:50:37;;;;;;;13.35;7.68;;;9.30;99.90;;;;;;4992775;28;20026;-85
2024/04/02 08:53:02;;;;;;;8.50;6.80;;;9.30;99.90;;;;;;4975291;28;20033;-83
2024/04/02 08:55:28;;;;;;;11.48;8.10;;;9.30;99.90;;;;;;5005996;28;20034;-84
2024/04/02 08:57:55;;;;;;;8.65;6.70;;;9.30;99.90;;;;;;4977546;28;20033;-84
2024/04/02 09:00:22;;;;;;;7.85;7.00;;;9.30;99.90;;;;;;4971406;28;20033;-84
2024/04/02 09:02:47;;;;;;;13.18;7.85;;;9.40;99.90;;;;;;5006154;28;20374;-84
2024/04/02 09:05:13;;;;;;;9.90;6.93;;;9.40;99.90;;;;;;4935680;28;20024;-84
2024/04/02 09:07:39;;;;;;;14.77;7.03;;;9.40;99.90;;;;;;4927128;28;20390;-85
2024/04/02 09:10:05;;;;;;;10.65;6.82;;;9.50;99.90;;;;;;4985422;28;20030;-84
2024/04/02 09:12:31;;;;;;;7.97;7.18;;;9.60;99.90;;;;;;4918080;28;20040;-84
2024/04/02 09:14:58;;;;;;;8.57;7.05;;;9.70;99.90;;;;;;4950568;28;20493;-83
2024/04/02 09:17:25;;;;;;;10.90;6.60;;;9.80;99.90;;;;;;4969092;28;20500;-84
2024/04/02 09:19:50;;;;;;;10.27;6.85;;;9.80;99.90;;;;;;4912254;28;21645;-85
2024/04/02 09:22:17;;;;;;;9.52;6.68;;;9.90;99.90;;;;;;4955361;28;20026;-83
2024/04/02 09:24:43;;;;;;;9.55;6.57;;;9.80;99.90;;;;;;4912956;28;20021;-85
2024/04/02 09:27:08;;;;;;;11.30;6.55;;;9.80;99.90;;;;;;4925228;28;20448;-84
2024/04/02 09:29:34;;;;;;;10.63;6.53;;;9.80;99.90;;;;;;4991879;28;20807;-84
2024/04/02 09:32:01;;;;;;;11.13;6.57;;;9.70;99.90;;;;;;4935347;28;20033;-84
2024/04/02 09:34:30;;;;;;;11.70;6.85;;;9.70;99.90;;;;;;4966139;28;20033;-84
2024/04/02 09:37:20;;;;;;;9.40;5.95;;;9.60;99.90;;;;;;4969010;28;20049;-85
2024/04/02 09:39:46;;;;;;;10.13;7.00;;;9.60;99.90;;;;;;4923160;28;20026;-84
2024/04/02 09:42:13;;;;;;;7.03;5.85;;;9.60;99.90;;;;;;4979656;22;20046;-50
2024/04/02 09:44:40;;;;;;;12.57;6.07;;;9.70;99.90;;;;;;4940294;28;20101;-55
2024/04/02 09:47:06;;;;;;;8.02;5.72;;;9.70;99.90;;;;;;4957970;28;20075;-54
2024/04/02 09:49:33;;;;;;;7.97;5.70;;;9.80;99.90;;;;;;4979567;28;20029;-58
2024/04/02 09:52:02;;;;;;;13.10;6.18;;;9.90;99.90;;;;;;4942214;28;20026;-55
2024/04/02 09:54:30;;;;;;;10.50;5.63;;;10.00;99.90;;;;;;4948273;28;20503;-53
2024/04/02 09:56:59;;;;;;;11.32;5.68;;;10.10;99.90;;;;;;4905134;28;20578;-51
2024/04/02 09:59:25;;;;;;;7.93;5.28;;;10.20;99.90;;;;;;4910528;28;20813;-49
2024/04/02 10:01:51;;;;;;;10.48;5.43;;;10.30;99.90;;;;;;4930157;28;21650;-48
2024/04/02 10:04:20;;;;;;;8.23;5.40;;;10.30;99.90;;;;;;4957791;28;20019;-49
2024/04/02 10:06:47;;;;;;;6.22;4.38;;;10.30;99.90;;;;;;4919263;28;20509;-53
2024/04/02 10:09:12;;;;;;;5.00;4.53;;;10.30;99.90;;;;;;4908886;28;20458;-48
2024/04/02 10:11:42;;;;;;;7.72;5.18;;;10.30;99.90;;;;;;4915815;28;20030;-51
2024/04/02 10:14:09;;;;;;;5.85;5.28;;;10.30;99.90;;;;;;4921607;28;20030;-53
2024/04/02 10:16:39;;;;;;;6.65;4.05;;;10.40;99.90;;;;;;4920002;28;20038;-59
2024/04/02 10:19:04;;;;;;;6.88;4.75;;;10.40;99.90;;;;;;4950688;28;20561;-53
2024/04/02 10:21:32;;;;;;;6.20;4.15;;;10.40;99.90;;;;;;4908493;28;20122;-52
2024/04/02 10:23:58;;;;;;;6.72;3.97;;;10.40;99.90;;;;;;4905972;28;20026;-52
2024/04/02 10:26:29;;;;;;;5.15;4.50;;;10.50;99.90;;;;;;4904661;28;20133;-60
2024/04/02 10:28:55;;;;;;;5.15;4.57;;;10.50;99.90;;;;;;4916095;28;22479;-52
2024/04/02 10:31:21;;;;;;;5.05;4.30;;;10.60;99.90;;;;;;4941156;28;20046;-53
2024/04/02 10:33:50;;;;;;;7.60;4.65;;;10.60;99.90;;;;;;4905674;28;20753;-51
2024/04/02 10:36:16;;;;;;;6.28;4.15;;;10.70;99.90;;;;;;4904561;28;20042;-51
2024/04/02 10:38:42;;;;;;;8.02;4.82;;;10.80;99.90;;;;;;4915011;28;21094;-52
2024/04/02 10:41:08;;;;;;;8.77;5.00;;;10.90;99.90;;;;;;4942578;28;20030;-54
2024/04/02 10:43:33;;;;;;;4.05;3.60;;;11.00;99.90;;;;;;4914680;28;20034;-57
2024/04/02 10:45:59;;;;;;;7.78;4.03;;;11.10;99.90;;;;;;4924904;28;20030;-59
2024/04/02 10:48:25;;;;;;;5.20;3.60;;;11.10;99.90;;;;;;4927703;28;20291;-51
2024/04/02 10:50:51;;;;;;;7.45;3.97;;;11.20;99.90;;;;;;4879427;28;20697;-50
2024/04/02 10:53:17;;;;;;;5.00;3.33;;;11.30;99.90;;;;;;4945129;28;20486;-51
2024/04/02 10:55:42;;;;;;;7.38;3.65;;;11.50;99.90;;;;;;4928701;28;20117;-53
2024/04/02 10:58:14;;;;;;;4.78;3.47;;;11.70;99.90;;;;;;4929444;28;20054;-52
2024/04/02 11:00:39;;;;;;;5.05;3.40;;;11.80;99.90;;;;;;4914726;28;20109;-52
2024/04/02 11:03:05;;;;;;;4.38;2.97;;;11.90;99.90;;;;;;4882669;28;20081;-49
2024/04/02 11:05:31;;;;;;;3.90;2.90;;;12.00;99.90;;;;;;4877148;28;20026;-53
2024/04/02 11:07:57;;;;;;;6.35;3.50;;;11.90;99.90;;;;;;4905521;28;22585;-49
2024/04/02 11:10:23;;;;;;;4.45;2.88;;;11.90;99.90;;;;;;4927101;28;20034;-51
2024/04/02 11:12:49;;;;;;;5.28;3.22;;;11.90;99.90;;;;;;4906105;28;20030;-50
2024/04/02 11:15:15;;;;;;;3.13;2.60;;;12.00;99.90;;;;;;4875434;28;20026;-52
2024/04/02 11:17:41;;;;;;;5.45;2.55;;;11.90;99.90;;;;;;4874431;28;21396;-49
2024/04/02 11:20:11;;;;;;;5.60;2.40;;;11.90;99.90;;;;;;4901596;28;20137;-51
2024/04/02 11:25:45;;;;;;;7.40;2.20;;;12.00;99.90;;;;;;4943219;28;20083;-87
2024/04/02 11:28:12;;;;;;;5.13;2.72;;;12.00;99.90;;;;;;4948337;28;20045;-87
2024/04/02 11:30:39;;;;;;;3.53;2.80;;;12.10;99.90;;;;;;4990257;28;20084;-88
2024/04/02 11:33:05;;;;;;;4.65;2.58;;;12.20;99.90;;;;;;4930895;28;20048;-88
2024/04/02 11:35:31;;;;;;;5.00;2.63;;;12.30;99.90;;;;;;4930663;28;20576;-86
2024/04/02 11:37:57;;;;;;;5.40;2.90;;;12.30;99.90;;;;;;4967333;28;20292;-87
2024/04/02 11:40:23;;;;;;;6.15;2.58;;;12.20;99.90;;;;;;4988312;28;20030;-87
2024/04/02 11:42:49;;;;;;;7.10;2.47;;;12.30;99.90;;;;;;4989011;28;20025;-87
2024/04/02 11:45:15;;;;;;;3.70;1.85;;;12.50;99.90;;;;;;4982848;28;20037;-87
2024/04/02 11:47:40;;;;;;;3.70;2.20;;;12.70;99.90;;;;;;4948863;28;20029;-87
2024/04/02 11:50:06;;;;;;;6.75;2.30;;;12.80;99.90;;;;;;4992611;28;20473;-88
2024/04/02 11:52:35;;;;;;;5.80;2.13;;;12.80;99.90;;;;;;4977453;28;20036;-87
2024/04/02 11:55:07;;;;;;;4.43;1.95;;;12.70;99.90;;;;;;4961878;28;20025;-85
2024/04/02 12:00:17;;;;;;;3.97;1.92;;;12.50;99.90;;;;;;4960174;28;20100;-87
2024/04/02 12:02:48;;;;;;;4.50;2.13;;;12.70;99.90;;;;;;4930857;28;21140;-85
2024/04/02 12:05:15;;;;;;;3.60;2.22;;;12.80;99.90;;;;;;4987536;28;20029;-87
2024/04/02 12:07:41;;;;;;;5.07;1.98;;;12.90;99.90;;;;;;4932736;28;20084;-87
2024/04/02 12:10:10;;;;;;;4.72;2.40;;;12.90;99.90;;;;;;4961217;28;20042;-86
2024/04/02 12:12:36;;;;;;;9.65;2.80;;;12.80;99.90;;;;;;4965730;28;20516;-87
2024/04/02 12:15:04;;;;;;;3.50;2.20;;;12.60;99.90;;;;;;4942875;28;20033;-86
2024/04/02 12:17:38;;;;;;;4.07;2.63;;;12.50;99.90;;;;;;4937766;28;20108;-87
2024/04/02 12:20:04;;;;;;;5.03;2.58;;;12.40;99.90;;;;;;4976862;28;20034;-86
2024/04/02 12:22:30;;;;;;;4.45;2.60;;;12.30;99.90;;;;;;4931053;28;20037;-87
2024/04/02 12:24:56;;;;;;;6.45;2.53;;;12.20;99.90;;;;;;4970023;28;20033;-88
2024/04/02 12:27:23;;;;;;;3.45;3.20;;;12.00;99.90;;;;;;4940961;28;20181;-86
2024/04/02 12:29:59;;;;;;;6.43;2.97;;;11.90;99.90;;;;;;4944842;28;21353;-87
2024/04/02 12:32:45;;;;;;;3.42;2.25;;;11.60;99.90;;;;;;4965204;28;20033;-87
2024/04/02 12:35:11;;;;;;;2.30;2.00;;;11.20;99.90;;;;;;4982164;28;20485;-86
2024/04/02 12:37:37;;;;;;;3.55;1.45;;;10.80;99.90;;;;;;4934663;28;20036;-84
2024/04/02 12:40:03;;;;;;;2.38;0.85;;;10.50;99.90;;;;;;4947231;28;20033;-85
2024/04/02 12:42:28;;;;;;;2.50;0.98;;;10.30;99.90;;;;;;4983185;28;20060;-86
2024/04/02 12:44:54;;;;;;;1.65;0.47;;;10.20;99.90;;;;;;4932142;28;20088;-86
2024/04/02 12:47:21;;;;;;;2.50;1.00;;;10.10;99.90;;;;;;4983128;28;20029;-86
2024/04/02 12:49:47;;;;;;;1.67;1.58;;;10.00;99.90;;;;;;4921243;28;20033;-86
2024/04/02 12:52:13;;;;;;;1.95;1.80;;;10.00;99.90;;;;;;4950486;28;21243;-86
2024/04/02 12:54:38;;;;;;;3.67;1.90;;;10.10;99.90;;;;;;4982964;28;20040;-86